sensor_id;sensor_type;location;lat;lon;timestamp;pressure;altitude;pressure_sealevel;temperature;humidity
51687;BME280;37774;52.192;4.584;2023-10-31T00:01:43;99531.38;;;10.48;100.00
51687;BME280;37774;52.192;4.584;2023-10-31T00:04:29;99507.81;;;10.54;100.00
51687;BME280;37774;52.192;4.584;2023-10-31T00:07:15;99527.00;;;10.50;100.00
51687;BME280;37774;52.192;4.584;2023-10-31T00:10:00;99530.78;;;10.70;100.00
51687;BME280;37774;52.192;4.584;2023-10-31T00:12:46;99528.31;;;10.65;100.00
51687;BME280;37774;52.192;4.584;2023-10-31T00:15:32;99535.19;;;10.34;100.00
51687;BME280;37774;52.192;4.584;2023-10-31T00:18:17;99524.97;;;10.28;100.00
51687;BME280;37774;52.192;4.584;2023-10-31T00:21:04;99511.25;;;10.23;100.00
51687;BME280;37774;52.192;4.584;2023-10-31T00:23:50;99454.59;;;10.06;100.00
51687;BME280;37774;52.192;4.584;2023-10-31T00:26:36;99473.50;;;10.44;100.00
51687;BME280;37774;52.192;4.584;2023-10-31T00:29:21;99483.97;;;10.41;100.00
51687;BME280;37774;52.192;4.584;2023-10-31T00:32:07;99463.47;;;10.30;100.00
51687;BME280;37774;52.192;4.584;2023-10-31T00:34:52;99469.63;;;10.26;100.00
51687;BME280;37774;52.192;4.584;2023-10-31T00:37:39;99456.63;;;10.28;100.00
51687;BME280;37774;52.192;4.584;2023-10-31T00:40:25;99400.25;;;10.01;100.00
51687;BME280;37774;52.192;4.584;2023-10-31T00:43:10;99453.31;;;10.22;100.00
51687;BME280;37774;52.192;4.584;2023-10-31T00:45:55;99446.34;;;10.23;100.00
51687;BME280;37774;52.192;4.584;2023-10-31T00:48:41;99426.31;;;9.97;100.00
51687;BME280;37774;52.192;4.584;2023-10-31T00:51:26;99401.06;;;10.03;100.00
51687;BME280;37774;52.192;4.584;2023-10-31T00:54:13;99431.84;;;10.47;100.00
51687;BME280;37774;52.192;4.584;2023-10-31T00:56:59;99436.09;;;10.50;100.00
51687;BME280;37774;52.192;4.584;2023-10-31T00:59:44;99433.47;;;10.50;100.00
51687;BME280;37774;52.192;4.584;2023-10-31T01:02:29;99402.00;;;10.31;100.00
51687;BME280;37774;52.192;4.584;2023-10-31T01:05:15;99438.84;;;10.45;100.00
51687;BME280;37774;52.192;4.584;2023-10-31T01:08:00;99455.84;;;10.56;100.00
51687;BME280;37774;52.192;4.584;2023-10-31T01:10:47;99409.34;;;10.16;100.00
51687;BME280;37774;52.192;4.584;2023-10-31T01:13:32;99449.47;;;10.36;100.00
51687;BME280;37774;52.192;4.584;2023-10-31T01:16:18;99457.91;;;10.44;100.00
51687;BME280;37774;52.192;4.584;2023-10-31T01:19:03;99412.69;;;10.20;100.00
51687;BME280;37774;52.192;4.584;2023-10-31T01:21:49;99479.16;;;10.57;100.00
51687;BME280;37774;52.192;4.584;2023-10-31T01:24:34;99492.81;;;10.65;100.00
51687;BME280;37774;52.192;4.584;2023-10-31T01:27:21;99481.63;;;10.62;100.00
51687;BME280;37774;52.192;4.584;2023-10-31T01:30:07;99457.13;;;10.41;100.00
51687;BME280;37774;52.192;4.584;2023-10-31T01:32:53;99454.06;;;10.26;100.00
51687;BME280;37774;52.192;4.584;2023-10-31T01:35:38;99443.13;;;10.15;100.00
51687;BME280;37774;52.192;4.584;2023-10-31T01:38:23;99525.72;;;10.65;100.00
51687;BME280;37774;52.192;4.584;2023-10-31T01:41:09;99523.59;;;10.48;100.00
51687;BME280;37774;52.192;4.584;2023-10-31T01:43:56;99545.78;;;10.60;100.00
51687;BME280;37774;52.192;4.584;2023-10-31T01:46:41;99487.25;;;10.15;100.00
51687;BME280;37774;52.192;4.584;2023-10-31T01:49:27;99501.81;;;10.20;100.00
51687;BME280;37774;52.192;4.584;2023-10-31T01:52:12;99513.56;;;10.34;100.00
51687;BME280;37774;52.192;4.584;2023-10-31T01:54:58;99535.34;;;10.28;100.00
51687;BME280;37774;52.192;4.584;2023-10-31T01:57:44;99520.63;;;10.29;100.00
51687;BME280;37774;52.192;4.584;2023-10-31T02:00:32;99568.22;;;10.62;100.00
51687;BME280;37774;52.192;4.584;2023-10-31T02:03:17;99513.03;;;10.22;100.00
51687;BME280;37774;52.192;4.584;2023-10-31T02:06:03;99530.06;;;10.31;100.00
51687;BME280;37774;52.192;4.584;2023-10-31T02:08:49;99569.41;;;10.50;100.00
51687;BME280;37774;52.192;4.584;2023-10-31T02:11:34;99554.72;;;10.49;100.00
51687;BME280;37774;52.192;4.584;2023-10-31T02:14:22;99505.81;;;10.32;100.00
51687;BME280;37774;52.192;4.584;2023-10-31T02:17:08;99545.09;;;10.53;100.00
51687;BME280;37774;52.192;4.584;2023-10-31T02:19:54;99566.28;;;10.69;100.00
51687;BME280;37774;52.192;4.584;2023-10-31T02:22:41;99546.69;;;10.59;100.00
51687;BME280;37774;52.192;4.584;2023-10-31T02:25:26;99536.84;;;10.37;100.00
51687;BME280;37774;52.192;4.584;2023-10-31T02:28:12;99544.38;;;10.48;100.00
51687;BME280;37774;52.192;4.584;2023-10-31T02:30:57;99566.69;;;10.55;100.00
51687;BME280;37774;52.192;4.584;2023-10-31T02:33:42;99578.81;;;10.55;100.00
51687;BME280;37774;52.192;4.584;2023-10-31T02:36:28;99511.41;;;10.18;100.00
51687;BME280;37774;52.192;4.584;2023-10-31T02:39:14;99532.63;;;10.33;100.00
51687;BME280;37774;52.192;4.584;2023-10-31T02:42:00;99551.31;;;10.47;100.00
51687;BME280;37774;52.192;4.584;2023-10-31T02:44:45;99522.97;;;10.38;100.00
51687;BME280;37774;52.192;4.584;2023-10-31T02:47:31;99526.72;;;10.28;100.00
51687;BME280;37774;52.192;4.584;2023-10-31T02:50:17;99536.78;;;10.38;100.00
51687;BME280;37774;52.192;4.584;2023-10-31T02:53:02;99514.47;;;10.33;100.00
51687;BME280;37774;52.192;4.584;2023-10-31T02:55:49;99481.75;;;9.94;100.00
51687;BME280;37774;52.192;4.584;2023-10-31T02:58:34;99514.28;;;10.06;100.00
51687;BME280;37774;52.192;4.584;2023-10-31T03:01:19;99560.22;;;10.37;100.00
51687;BME280;37774;52.192;4.584;2023-10-31T03:04:05;99472.63;;;9.79;100.00
51687;BME280;37774;52.192;4.584;2023-10-31T03:06:50;99573.38;;;10.31;100.00
51687;BME280;37774;52.192;4.584;2023-10-31T03:09:36;99479.69;;;9.74;100.00
51687;BME280;37774;52.192;4.584;2023-10-31T03:12:22;99530.50;;;10.16;100.00
51687;BME280;37774;52.192;4.584;2023-10-31T03:15:09;99527.22;;;10.09;100.00
51687;BME280;37774;52.192;4.584;2023-10-31T03:17:54;99573.00;;;10.45;100.00
51687;BME280;37774;52.192;4.584;2023-10-31T03:20:40;99548.66;;;10.16;100.00
51687;BME280;37774;52.192;4.584;2023-10-31T03:23:25;99508.59;;;9.93;100.00
51687;BME280;37774;52.192;4.584;2023-10-31T03:26:11;99575.75;;;10.38;100.00
51687;BME280;37774;52.192;4.584;2023-10-31T03:28:57;99576.22;;;10.21;100.00
51687;BME280;37774;52.192;4.584;2023-10-31T03:31:43;99579.47;;;10.30;100.00
51687;BME280;37774;52.192;4.584;2023-10-31T03:34:28;99564.22;;;10.17;100.00
51687;BME280;37774;52.192;4.584;2023-10-31T03:37:14;99551.53;;;10.05;100.00
51687;BME280;37774;52.192;4.584;2023-10-31T03:39:59;99574.88;;;10.05;100.00
51687;BME280;37774;52.192;4.584;2023-10-31T03:42:45;99602.75;;;10.33;100.00
51687;BME280;37774;52.192;4.584;2023-10-31T03:45:32;99573.06;;;10.10;100.00
51687;BME280;37774;52.192;4.584;2023-10-31T03:48:17;99573.81;;;10.14;100.00
51687;BME280;37774;52.192;4.584;2023-10-31T03:51:03;99614.19;;;10.26;100.00
51687;BME280;37774;52.192;4.584;2023-10-31T03:53:48;99567.31;;;9.97;100.00
51687;BME280;37774;52.192;4.584;2023-10-31T03:56:38;99585.63;;;9.91;100.00
51687;BME280;37774;52.192;4.584;2023-10-31T03:59:23;99585.44;;;9.99;100.00
51687;BME280;37774;52.192;4.584;2023-10-31T04:02:10;99514.53;;;9.63;100.00
51687;BME280;37774;52.192;4.584;2023-10-31T04:04:56;99612.56;;;10.21;100.00
51687;BME280;37774;52.192;4.584;2023-10-31T04:07:41;99646.09;;;10.31;100.00
51687;BME280;37774;52.192;4.584;2023-10-31T04:10:27;99560.84;;;9.79;100.00
51687;BME280;37774;52.192;4.584;2023-10-31T04:13:12;99584.53;;;10.00;100.00
51687;BME280;37774;52.192;4.584;2023-10-31T04:15:58;99623.13;;;10.15;100.00
51687;BME280;37774;52.192;4.584;2023-10-31T04:18:45;99636.81;;;10.20;100.00
51687;BME280;37774;52.192;4.584;2023-10-31T04:21:30;99646.31;;;10.21;100.00
51687;BME280;37774;52.192;4.584;2023-10-31T04:24:16;99593.28;;;9.96;100.00
51687;BME280;37774;52.192;4.584;2023-10-31T04:27:01;99633.41;;;10.18;100.00
51687;BME280;37774;52.192;4.584;2023-10-31T04:29:47;99618.03;;;10.11;100.00
51687;BME280;37774;52.192;4.584;2023-10-31T04:32:32;99633.50;;;10.15;100.00
51687;BME280;37774;52.192;4.584;2023-10-31T04:35:19;99622.41;;;10.08;100.00
51687;BME280;37774;52.192;4.584;2023-10-31T04:38:04;99618.25;;;10.01;100.00
51687;BME280;37774;52.192;4.584;2023-10-31T04:40:50;99641.22;;;10.17;100.00
51687;BME280;37774;52.192;4.584;2023-10-31T04:43:35;99651.91;;;10.04;100.00
51687;BME280;37774;52.192;4.584;2023-10-31T04:46:21;99639.72;;;10.08;100.00
51687;BME280;37774;52.192;4.584;2023-10-31T04:49:06;99634.56;;;10.06;100.00
51687;BME280;37774;52.192;4.584;2023-10-31T04:51:53;99642.44;;;10.02;100.00
51687;BME280;37774;52.192;4.584;2023-10-31T04:54:39;99642.25;;;10.11;100.00
51687;BME280;37774;52.192;4.584;2023-10-31T04:57:25;99621.84;;;9.96;100.00
51687;BME280;37774;52.192;4.584;2023-10-31T05:00:11;99656.06;;;10.12;100.00
51687;BME280;37774;52.192;4.584;2023-10-31T05:02:56;99654.50;;;10.04;100.00
51687;BME280;37774;52.192;4.584;2023-10-31T05:05:42;99652.56;;;10.14;100.00
51687;BME280;37774;52.192;4.584;2023-10-31T05:08:29;99657.94;;;10.05;100.00
51687;BME280;37774;52.192;4.584;2023-10-31T05:11:16;99622.94;;;9.87;100.00
51687;BME280;37774;52.192;4.584;2023-10-31T05:14:02;99643.13;;;10.10;100.00
51687;BME280;37774;52.192;4.584;2023-10-31T05:16:47;99598.84;;;9.82;100.00
51687;BME280;37774;52.192;4.584;2023-10-31T05:19:32;99616.81;;;9.89;100.00
51687;BME280;37774;52.192;4.584;2023-10-31T05:22:18;99647.63;;;10.03;100.00
51687;BME280;37774;52.192;4.584;2023-10-31T05:25:05;99583.50;;;9.72;100.00
51687;BME280;37774;52.192;4.584;2023-10-31T05:27:51;99663.03;;;10.11;100.00
51687;BME280;37774;52.192;4.584;2023-10-31T05:30:37;99664.91;;;10.03;100.00
51687;BME280;37774;52.192;4.584;2023-10-31T05:33:22;99593.31;;;9.59;100.00
51687;BME280;37774;52.192;4.584;2023-10-31T05:36:17;99665.28;;;9.87;100.00
51687;BME280;37774;52.192;4.584;2023-10-31T05:39:03;99641.59;;;9.65;100.00
51687;BME280;37774;52.192;4.584;2023-10-31T05:41:51;99656.53;;;9.91;100.00
51687;BME280;37774;52.192;4.584;2023-10-31T05:44:36;99673.19;;;9.83;100.00
51687;BME280;37774;52.192;4.584;2023-10-31T05:47:21;99651.63;;;9.81;100.00
51687;BME280;37774;52.192;4.584;2023-10-31T05:50:08;99596.47;;;9.34;100.00
51687;BME280;37774;52.192;4.584;2023-10-31T05:52:53;99644.88;;;9.72;100.00
51687;BME280;37774;52.192;4.584;2023-10-31T05:55:39;99661.09;;;9.82;100.00
51687;BME280;37774;52.192;4.584;2023-10-31T05:58:25;99647.63;;;9.65;100.00
51687;BME280;37774;52.192;4.584;2023-10-31T06:01:11;99465.72;;;8.69;100.00
51687;BME280;37774;52.192;4.584;2023-10-31T06:03:57;99594.16;;;9.20;100.00
51687;BME280;37774;52.192;4.584;2023-10-31T06:06:42;99669.84;;;9.77;100.00
51687;BME280;37774;52.192;4.584;2023-10-31T06:09:28;99686.25;;;9.78;100.00
51687;BME280;37774;52.192;4.584;2023-10-31T06:12:13;99613.53;;;9.45;100.00
51687;BME280;37774;52.192;4.584;2023-10-31T06:15:00;99493.13;;;8.80;100.00
51687;BME280;37774;52.192;4.584;2023-10-31T06:17:45;99608.28;;;9.46;100.00
51687;BME280;37774;52.192;4.584;2023-10-31T06:20:31;99588.69;;;9.34;100.00
51687;BME280;37774;52.192;4.584;2023-10-31T06:23:18;99649.72;;;9.87;100.00
51687;BME280;37774;52.192;4.584;2023-10-31T06:26:04;99654.69;;;9.97;100.00
51687;BME280;37774;52.192;4.584;2023-10-31T06:28:49;99619.00;;;9.70;100.00
51687;BME280;37774;52.192;4.584;2023-10-31T06:31:36;99641.84;;;9.92;100.00
51687;BME280;37774;52.192;4.584;2023-10-31T06:34:21;99562.72;;;9.36;100.00
51687;BME280;37774;52.192;4.584;2023-10-31T06:37:07;99577.59;;;9.65;100.00
51687;BME280;37774;52.192;4.584;2023-10-31T06:39:53;99535.00;;;9.38;100.00
51687;BME280;37774;52.192;4.584;2023-10-31T06:42:38;99626.06;;;10.00;100.00
51687;BME280;37774;52.192;4.584;2023-10-31T06:45:24;99577.28;;;9.79;100.00
51687;BME280;37774;52.192;4.584;2023-10-31T06:48:11;99596.78;;;9.94;100.00
51687;BME280;37774;52.192;4.584;2023-10-31T06:50:56;99570.31;;;9.80;100.00
51687;BME280;37774;52.192;4.584;2023-10-31T06:53:42;99601.66;;;10.07;100.00
51687;BME280;37774;52.192;4.584;2023-10-31T06:56:27;99517.25;;;9.59;100.00
51687;BME280;37774;52.192;4.584;2023-10-31T06:59:13;99565.19;;;9.78;100.00
51687;BME280;37774;52.192;4.584;2023-10-31T07:01:58;99611.03;;;10.14;100.00
51687;BME280;37774;52.192;4.584;2023-10-31T07:04:45;99598.16;;;10.09;100.00
51687;BME280;37774;52.192;4.584;2023-10-31T07:07:31;99622.56;;;10.37;100.00
51687;BME280;37774;52.192;4.584;2023-10-31T07:10:16;99513.13;;;9.50;100.00
51687;BME280;37774;52.192;4.584;2023-10-31T07:13:03;99640.59;;;10.43;100.00
51687;BME280;37774;52.192;4.584;2023-10-31T07:15:49;99635.03;;;10.57;100.00
51687;BME280;37774;52.192;4.584;2023-10-31T07:18:34;99608.13;;;10.25;100.00
51687;BME280;37774;52.192;4.584;2023-10-31T07:21:21;99642.91;;;10.54;100.00
51687;BME280;37774;52.192;4.584;2023-10-31T07:24:07;99638.72;;;10.48;100.00
51687;BME280;37774;52.192;4.584;2023-10-31T07:26:53;99664.72;;;10.48;100.00
51687;BME280;37774;52.192;4.584;2023-10-31T07:29:39;99614.78;;;10.35;100.00
51687;BME280;37774;52.192;4.584;2023-10-31T07:32:25;99614.56;;;10.45;100.00
51687;BME280;37774;52.192;4.584;2023-10-31T07:35:10;99658.13;;;10.68;100.00
51687;BME280;37774;52.192;4.584;2023-10-31T07:37:57;99667.44;;;10.77;100.00
51687;BME280;37774;52.192;4.584;2023-10-31T07:40:43;99639.63;;;10.47;100.00
51687;BME280;37774;52.192;4.584;2023-10-31T07:43:28;99674.59;;;10.69;100.00
51687;BME280;37774;52.192;4.584;2023-10-31T07:46:14;99626.00;;;10.37;100.00
51687;BME280;37774;52.192;4.584;2023-10-31T07:48:59;99675.66;;;10.61;100.00
51687;BME280;37774;52.192;4.584;2023-10-31T07:51:45;99658.56;;;10.51;100.00
51687;BME280;37774;52.192;4.584;2023-10-31T07:54:33;99596.28;;;10.15;100.00
51687;BME280;37774;52.192;4.584;2023-10-31T07:57:18;99566.88;;;9.79;100.00
51687;BME280;37774;52.192;4.584;2023-10-31T08:00:08;99713.97;;;10.51;100.00
51687;BME280;37774;52.192;4.584;2023-10-31T08:02:54;99681.50;;;10.33;100.00
51687;BME280;37774;52.192;4.584;2023-10-31T08:05:40;99666.13;;;10.26;100.00
51687;BME280;37774;52.192;4.584;2023-10-31T08:08:26;99645.78;;;10.07;100.00
51687;BME280;37774;52.192;4.584;2023-10-31T08:11:13;99589.16;;;9.88;100.00
51687;BME280;37774;52.192;4.584;2023-10-31T08:13:58;99650.84;;;10.48;100.00
51687;BME280;37774;52.192;4.584;2023-10-31T08:16:44;99668.16;;;10.82;100.00
51687;BME280;37774;52.192;4.584;2023-10-31T08:19:29;99667.84;;;10.93;100.00
51687;BME280;37774;52.192;4.584;2023-10-31T08:22:16;99704.31;;;11.21;100.00
51687;BME280;37774;52.192;4.584;2023-10-31T08:25:01;99685.38;;;11.18;100.00
51687;BME280;37774;52.192;4.584;2023-10-31T08:27:48;99682.97;;;11.40;100.00
51687;BME280;37774;52.192;4.584;2023-10-31T08:30:33;99634.38;;;11.14;100.00
51687;BME280;37774;52.192;4.584;2023-10-31T08:33:19;99643.25;;;11.35;100.00
51687;BME280;37774;52.192;4.584;2023-10-31T08:36:05;99689.41;;;11.87;100.00
51687;BME280;37774;52.192;4.584;2023-10-31T08:38:51;99545.84;;;10.88;100.00
51687;BME280;37774;52.192;4.584;2023-10-31T08:41:36;99710.06;;;11.91;100.00
51687;BME280;37774;52.192;4.584;2023-10-31T08:44:25;99669.53;;;11.84;100.00
51687;BME280;37774;52.192;4.584;2023-10-31T08:47:10;99714.72;;;12.10;100.00
51687;BME280;37774;52.192;4.584;2023-10-31T08:49:56;99729.69;;;12.32;100.00
51687;BME280;37774;52.192;4.584;2023-10-31T08:52:41;99729.91;;;12.25;100.00
51687;BME280;37774;52.192;4.584;2023-10-31T08:55:27;99729.03;;;12.25;100.00
51687;BME280;37774;52.192;4.584;2023-10-31T08:58:13;99735.22;;;12.48;100.00
51687;BME280;37774;52.192;4.584;2023-10-31T09:01:00;99756.94;;;12.48;100.00
51687;BME280;37774;52.192;4.584;2023-10-31T09:03:45;99749.22;;;12.72;100.00
51687;BME280;37774;52.192;4.584;2023-10-31T09:06:31;99566.72;;;11.71;100.00
51687;BME280;37774;52.192;4.584;2023-10-31T09:09:17;99768.94;;;12.79;100.00
51687;BME280;37774;52.192;4.584;2023-10-31T09:12:03;99813.94;;;13.11;100.00
51687;BME280;37774;52.192;4.584;2023-10-31T09:14:48;99698.41;;;12.05;100.00
51687;BME280;37774;52.192;4.584;2023-10-31T09:17:35;99846.59;;;13.22;100.00
51687;BME280;37774;52.192;4.584;2023-10-31T09:20:21;99859.88;;;13.15;100.00
51687;BME280;37774;52.192;4.584;2023-10-31T09:23:06;99860.59;;;12.94;100.00
51687;BME280;37774;52.192;4.584;2023-10-31T09:25:52;99869.19;;;12.97;100.00
51687;BME280;37774;52.192;4.584;2023-10-31T09:28:38;99890.69;;;13.04;100.00
51687;BME280;37774;52.192;4.584;2023-10-31T09:31:26;99908.31;;;13.23;100.00
51687;BME280;37774;52.192;4.584;2023-10-31T09:34:13;99875.41;;;13.19;100.00
51687;BME280;37774;52.192;4.584;2023-10-31T09:36:59;99916.84;;;13.55;100.00
51687;BME280;37774;52.192;4.584;2023-10-31T09:39:44;99883.84;;;13.00;100.00
51687;BME280;37774;52.192;4.584;2023-10-31T09:42:29;99940.03;;;13.37;100.00
51687;BME280;37774;52.192;4.584;2023-10-31T09:45:15;99881.31;;;12.98;100.00
51687;BME280;37774;52.192;4.584;2023-10-31T09:48:01;99952.88;;;13.17;100.00
51687;BME280;37774;52.192;4.584;2023-10-31T09:50:49;99940.81;;;12.57;100.00
51687;BME280;37774;52.192;4.584;2023-10-31T09:53:37;99922.38;;;12.63;100.00
51687;BME280;37774;52.192;4.584;2023-10-31T09:56:23;99929.69;;;12.80;100.00
51687;BME280;37774;52.192;4.584;2023-10-31T09:59:10;99908.03;;;12.78;100.00
51687;BME280;37774;52.192;4.584;2023-10-31T10:01:55;99927.88;;;12.82;100.00
51687;BME280;37774;52.192;4.584;2023-10-31T10:04:41;99936.97;;;12.97;100.00
51687;BME280;37774;52.192;4.584;2023-10-31T10:07:28;99919.16;;;12.83;100.00
51687;BME280;37774;52.192;4.584;2023-10-31T10:10:13;100010.03;;;12.96;100.00
51687;BME280;37774;52.192;4.584;2023-10-31T10:12:59;99999.56;;;12.97;100.00
51687;BME280;37774;52.192;4.584;2023-10-31T10:15:47;100009.63;;;13.10;100.00
51687;BME280;37774;52.192;4.584;2023-10-31T10:18:36;100053.56;;;13.22;100.00
51687;BME280;37774;52.192;4.584;2023-10-31T10:21:23;99887.91;;;12.25;100.00
51687;BME280;37774;52.192;4.584;2023-10-31T10:24:10;100039.53;;;13.26;100.00
51687;BME280;37774;52.192;4.584;2023-10-31T10:26:55;100027.00;;;13.09;100.00
51687;BME280;37774;52.192;4.584;2023-10-31T10:29:40;100011.03;;;12.92;100.00
51687;BME280;37774;52.192;4.584;2023-10-31T10:32:26;100039.91;;;13.14;100.00
51687;BME280;37774;52.192;4.584;2023-10-31T10:35:11;99883.50;;;12.27;100.00
51687;BME280;37774;52.192;4.584;2023-10-31T10:37:58;100036.00;;;12.99;100.00
51687;BME280;37774;52.192;4.584;2023-10-31T10:40:47;100037.16;;;12.90;100.00
51687;BME280;37774;52.192;4.584;2023-10-31T10:43:37;100009.84;;;12.74;100.00
51687;BME280;37774;52.192;4.584;2023-10-31T10:46:24;99978.16;;;12.57;100.00
51687;BME280;37774;52.192;4.584;2023-10-31T10:49:11;100037.94;;;12.64;100.00
51687;BME280;37774;52.192;4.584;2023-10-31T10:52:01;99980.34;;;12.41;100.00
51687;BME280;37774;52.192;4.584;2023-10-31T10:54:52;100069.81;;;13.02;100.00
51687;BME280;37774;52.192;4.584;2023-10-31T10:57:46;100076.03;;;13.28;100.00
51687;BME280;37774;52.192;4.584;2023-10-31T11:00:33;100093.31;;;13.30;100.00
51687;BME280;37774;52.192;4.584;2023-10-31T11:03:19;100036.00;;;12.99;100.00
51687;BME280;37774;52.192;4.584;2023-10-31T11:06:06;100067.28;;;13.29;100.00
51687;BME280;37774;52.192;4.584;2023-10-31T11:08:52;100103.22;;;13.49;100.00
51687;BME280;37774;52.192;4.584;2023-10-31T11:11:38;100103.63;;;13.64;100.00
51687;BME280;37774;52.192;4.584;2023-10-31T11:14:27;100059.47;;;13.29;100.00
51687;BME280;37774;52.192;4.584;2023-10-31T11:17:23;100059.53;;;13.56;100.00
51687;BME280;37774;52.192;4.584;2023-10-31T11:20:10;100073.38;;;13.58;100.00
51687;BME280;37774;52.192;4.584;2023-10-31T11:22:58;100087.53;;;13.78;100.00
51687;BME280;37774;52.192;4.584;2023-10-31T11:25:50;100090.53;;;13.65;100.00
51687;BME280;37774;52.192;4.584;2023-10-31T11:28:37;100059.66;;;13.51;100.00
51687;BME280;37774;52.192;4.584;2023-10-31T11:31:24;100090.50;;;13.38;100.00
51687;BME280;37774;52.192;4.584;2023-10-31T11:34:12;100050.16;;;13.20;100.00
51687;BME280;37774;52.192;4.584;2023-10-31T11:37:18;100075.59;;;13.42;100.00
51687;BME280;37774;52.192;4.584;2023-10-31T11:40:18;100049.69;;;13.07;100.00
51687;BME280;37774;52.192;4.584;2023-10-31T11:43:05;100033.06;;;12.51;100.00
51687;BME280;37774;52.192;4.584;2023-10-31T11:45:52;100030.19;;;12.31;100.00
51687;BME280;37774;52.192;4.584;2023-10-31T11:48:46;100099.41;;;12.71;100.00
51687;BME280;37774;52.192;4.584;2023-10-31T11:51:32;100067.41;;;12.66;100.00
51687;BME280;37774;52.192;4.584;2023-10-31T11:54:18;99918.78;;;11.76;100.00
51687;BME280;37774;52.192;4.584;2023-10-31T11:57:03;100069.56;;;12.51;100.00
51687;BME280;37774;52.192;4.584;2023-10-31T11:59:48;100095.44;;;12.57;100.00
51687;BME280;37774;52.192;4.584;2023-10-31T12:02:34;100099.38;;;12.41;100.00
51687;BME280;37774;52.192;4.584;2023-10-31T12:05:23;100088.22;;;11.99;100.00
51687;BME280;37774;52.192;4.584;2023-10-31T12:08:08;100048.56;;;11.53;100.00
51687;BME280;37774;52.192;4.584;2023-10-31T12:11:03;100112.63;;;11.95;100.00
51687;BME280;37774;52.192;4.584;2023-10-31T12:13:54;100107.44;;;11.95;100.00
51687;BME280;37774;52.192;4.584;2023-10-31T12:16:43;100111.91;;;12.26;100.00
51687;BME280;37774;52.192;4.584;2023-10-31T12:19:30;100134.13;;;12.40;100.00
51687;BME280;37774;52.192;4.584;2023-10-31T12:22:17;100116.63;;;12.45;100.00
51687;BME280;37774;52.192;4.584;2023-10-31T12:25:05;100116.88;;;12.36;100.00
51687;BME280;37774;52.192;4.584;2023-10-31T12:27:51;100088.69;;;12.50;100.00
51687;BME280;37774;52.192;4.584;2023-10-31T12:30:44;100089.19;;;12.32;100.00
51687;BME280;37774;52.192;4.584;2023-10-31T12:33:30;100110.03;;;12.32;100.00
51687;BME280;37774;52.192;4.584;2023-10-31T12:36:16;100081.56;;;12.24;100.00
51687;BME280;37774;52.192;4.584;2023-10-31T12:39:04;100110.72;;;12.38;100.00
51687;BME280;37774;52.192;4.584;2023-10-31T12:41:50;100036.09;;;12.03;100.00
51687;BME280;37774;52.192;4.584;2023-10-31T12:44:39;100083.81;;;12.38;100.00
51687;BME280;37774;52.192;4.584;2023-10-31T12:47:25;100021.34;;;12.03;100.00
51687;BME280;37774;52.192;4.584;2023-10-31T12:50:12;100048.88;;;12.45;100.00
51687;BME280;37774;52.192;4.584;2023-10-31T12:52:59;100071.19;;;12.55;100.00
51687;BME280;37774;52.192;4.584;2023-10-31T12:55:48;100099.22;;;12.79;100.00
51687;BME280;37774;52.192;4.584;2023-10-31T12:58:34;100030.91;;;12.03;100.00
51687;BME280;37774;52.192;4.584;2023-10-31T13:01:19;100111.41;;;12.45;100.00
51687;BME280;37774;52.192;4.584;2023-10-31T13:04:05;100087.78;;;12.18;100.00
51687;BME280;37774;52.192;4.584;2023-10-31T13:06:55;100105.84;;;12.26;100.00
51687;BME280;37774;52.192;4.584;2023-10-31T13:09:41;100072.63;;;12.01;100.00
51687;BME280;37774;52.192;4.584;2023-10-31T13:12:29;100094.13;;;12.08;100.00
51687;BME280;37774;52.192;4.584;2023-10-31T13:15:16;100118.50;;;12.40;100.00
51687;BME280;37774;52.192;4.584;2023-10-31T13:18:02;100103.50;;;12.15;100.00
51687;BME280;37774;52.192;4.584;2023-10-31T13:20:47;100099.69;;;12.29;100.00
51687;BME280;37774;52.192;4.584;2023-10-31T13:23:33;100139.66;;;12.27;100.00
51687;BME280;37774;52.192;4.584;2023-10-31T13:26:19;100080.56;;;11.93;100.00
51687;BME280;37774;52.192;4.584;2023-10-31T13:29:05;100134.75;;;12.15;100.00
51687;BME280;37774;52.192;4.584;2023-10-31T13:31:51;100134.81;;;12.12;100.00
51687;BME280;37774;52.192;4.584;2023-10-31T13:34:36;100004.94;;;11.29;100.00
51687;BME280;37774;52.192;4.584;2023-10-31T13:37:22;100080.16;;;11.76;100.00
51687;BME280;37774;52.192;4.584;2023-10-31T13:40:07;100112.72;;;11.92;100.00
51687;BME280;37774;52.192;4.584;2023-10-31T13:42:53;100149.91;;;11.97;100.00
51687;BME280;37774;52.192;4.584;2023-10-31T13:45:40;100161.81;;;12.09;100.00
51687;BME280;37774;52.192;4.584;2023-10-31T13:48:26;100117.25;;;11.86;100.00
51687;BME280;37774;52.192;4.584;2023-10-31T13:51:11;100165.91;;;12.20;100.00
51687;BME280;37774;52.192;4.584;2023-10-31T13:53:56;100150.66;;;12.04;100.00
51687;BME280;37774;52.192;4.584;2023-10-31T13:56:42;100117.47;;;11.76;100.00
51687;BME280;37774;52.192;4.584;2023-10-31T13:59:28;100113.69;;;11.52;100.00
51687;BME280;37774;52.192;4.584;2023-10-31T14:02:15;100142.81;;;11.68;100.00
51687;BME280;37774;52.192;4.584;2023-10-31T14:05:01;100154.06;;;11.68;100.00
51687;BME280;37774;52.192;4.584;2023-10-31T14:07:48;100110.88;;;11.22;100.00
51687;BME280;37774;52.192;4.584;2023-10-31T14:10:35;100126.34;;;11.28;100.00
51687;BME280;37774;52.192;4.584;2023-10-31T14:13:20;100114.94;;;11.34;100.00
51687;BME280;37774;52.192;4.584;2023-10-31T14:16:06;100137.47;;;11.35;100.00
51687;BME280;37774;52.192;4.584;2023-10-31T14:18:53;100186.22;;;11.66;100.00
51687;BME280;37774;52.192;4.584;2023-10-31T14:21:39;100189.09;;;11.53;100.00
51687;BME280;37774;52.192;4.584;2023-10-31T14:24:25;100153.13;;;11.32;100.00
51687;BME280;37774;52.192;4.584;2023-10-31T14:27:10;100157.69;;;11.22;100.00